Time,TemperatureF,DewpointF,PressureIn,WindDirection,WindDirectionDegrees,WindSpeedMPH,WindSpeedGustMPH,Humidity,HourlyPrecipIn,Conditions,Clouds,dailyrainin,SoftwareType,DateUTC
2013-03-20 00:08:00,57.9,33.1,30.08,SSW,202,1.6,-999.0,39,-99.99,,,0.00,Acu-Link.com,2013-03-20 05:08:00,
2013-03-20 00:23:00,57.2,33.1,30.09,SW,225,0.0,-999.0,40,-99.99,,,0.00,Acu-Link.com,2013-03-20 05:23:00,
2013-03-20 00:39:00,56.5,33.1,30.10,South,180,2.7,-999.0,41,-99.99,,,0.00,Acu-Link.com,2013-03-20 05:39:00,
2013-03-20 00:54:00,55.9,33.8,30.10,South,180,1.6,-999.0,43,-99.99,,,0.00,Acu-Link.com,2013-03-20 05:54:00,
2013-03-20 01:09:00,55.0,34.1,30.10,WSW,247,0.0,-999.0,45,-99.99,,,0.00,Acu-Link.com,2013-03-20 06:09:00,
2013-03-20 01:24:00,54.1,33.8,30.11,WSW,247,0.0,-999.0,46,-99.99,,,0.00,Acu-Link.com,2013-03-20 06:24:00,
2013-03-20 01:39:00,53.2,35.1,30.12,South,180,0.0,-999.0,50,-99.99,,,0.00,Acu-Link.com,2013-03-20 06:39:00,
2013-03-20 01:55:00,52.7,34.6,30.12,West,270,0.0,-999.0,50,-99.99,,,0.00,Acu-Link.com,2013-03-20 06:55:00,
2013-03-20 02:10:00,51.8,34.3,30.13,SW,225,0.0,-999.0,51,-99.99,,,0.00,Acu-Link.com,2013-03-20 07:10:00,
2013-03-20 02:25:00,51.1,35.0,30.15,SSW,202,0.0,-999.0,54,-99.99,,,0.00,Acu-Link.com,2013-03-20 07:25:00,
2013-03-20 02:40:00,51.1,36.4,30.16,SSE,157,2.2,-999.0,57,-99.99,,,0.00,Acu-Link.com,2013-03-20 07:40:00,
2013-03-20 02:55:00,51.4,36.7,30.16,SSW,202,0.0,-999.0,57,-99.99,,,0.00,Acu-Link.com,2013-03-20 07:55:00,
2013-03-20 03:18:00,51.3,36.1,30.16,WSW,247,1.6,-999.0,56,-99.99,,,0.00,Acu-Link.com,2013-03-20 08:18:00,
2013-03-20 03:35:00,51.3,36.1,30.16,WSW,247,2.7,-999.0,56,-99.99,,,0.00,Acu-Link.com,2013-03-20 08:35:00,
2013-03-20 03:51:00,49.5,35.7,30.15,SW,225,1.1,-999.0,59,-99.99,,,0.00,Acu-Link.com,2013-03-20 08:51:00,
2013-03-20 04:21:00,48.4,36.0,30.15,SSE,157,1.6,-999.0,62,-99.99,,,0.00,Acu-Link.com,2013-03-20 09:21:00,
2013-03-20 04:36:00,48.0,37.6,30.15,SSW,202,0.0,-999.0,67,-99.99,,,0.00,Acu-Link.com,2013-03-20 09:36:00,
2013-03-20 04:51:00,47.5,37.1,30.16,SSW,202,0.0,-999.0,67,-99.99,,,0.00,Acu-Link.com,2013-03-20 09:51:00,
2013-03-20 05:07:00,47.5,36.7,30.15,SSW,202,0.0,-999.0,66,-99.99,,,0.00,Acu-Link.com,2013-03-20 10:07:00,
2013-03-20 05:22:00,47.8,36.7,30.16,SSW,202,0.0,-999.0,65,-99.99,,,0.00,Acu-Link.com,2013-03-20 10:22:00,
2013-03-20 05:37:00,49.3,36.4,30.17,East,90,1.6,-999.0,61,-99.99,,,0.00,Acu-Link.com,2013-03-20 10:37:00,
2013-03-20 05:52:00,49.8,35.6,30.18,WSW,247,1.1,-999.0,58,-99.99,,,0.00,Acu-Link.com,2013-03-20 10:52:00,
2013-03-20 06:07:00,50.0,35.4,30.18,SSW,202,1.1,-999.0,57,-99.99,,,0.00,Acu-Link.com,2013-03-20 11:07:00,
2013-03-20 06:23:00,49.6,35.5,30.18,SSE,157,0.0,-999.0,58,-99.99,,,0.00,Acu-Link.com,2013-03-20 11:23:00,
2013-03-20 06:38:00,48.4,35.1,30.20,South,180,0.0,-999.0,60,-99.99,,,0.00,Acu-Link.com,2013-03-20 11:38:00,
2013-03-20 06:53:00,48.0,36.4,30.22,SW,225,0.0,-999.0,64,-99.99,,,0.00,Acu-Link.com,2013-03-20 11:53:00,
2013-03-20 07:08:00,47.5,37.5,30.22,SSW,202,0.0,-999.0,68,-99.99,,,0.00,Acu-Link.com,2013-03-20 12:08:00,
2013-03-20 07:23:00,47.3,37.3,30.23,SW,225,2.2,-999.0,68,-99.99,,,0.00,Acu-Link.com,2013-03-20 12:23:00,
2013-03-20 07:39:00,47.1,37.1,30.24,SSW,202,0.0,-999.0,68,-99.99,,,0.00,Acu-Link.com,2013-03-20 12:39:00,
2013-03-20 07:54:00,47.1,37.8,30.25,ESE,112,0.0,-999.0,70,-99.99,,,0.00,Acu-Link.com,2013-03-20 12:54:00,
2013-03-20 08:09:00,47.8,38.2,30.24,SE,135,0.0,-999.0,69,-99.99,,,0.00,Acu-Link.com,2013-03-20 13:09:00,
2013-03-20 08:24:00,50.0,38.3,30.25,South,180,1.6,-999.0,64,-99.99,,,0.00,Acu-Link.com,2013-03-20 13:24:00,
2013-03-20 08:40:00,52.5,39.5,30.26,ENE,67,1.6,-999.0,61,-99.99,,,0.00,Acu-Link.com,2013-03-20 13:40:00,
2013-03-20 08:55:00,53.6,39.2,30.27,West,270,2.2,-999.0,58,-99.99,,,0.00,Acu-Link.com,2013-03-20 13:55:00,
2013-03-20 09:10:00,54.0,38.6,30.28,SE,135,2.2,-999.0,56,-99.99,,,0.00,Acu-Link.com,2013-03-20 14:10:00,
2013-03-20 09:25:00,55.2,38.9,30.29,SSE,157,1.6,-999.0,54,-99.99,,,0.00,Acu-Link.com,2013-03-20 14:25:00,
2013-03-20 09:40:00,57.7,39.7,30.28,West,270,1.6,-999.0,51,-99.99,,,0.00,Acu-Link.com,2013-03-20 14:40:00,
2013-03-20 09:56:00,58.5,39.9,30.29,WSW,247,1.6,-999.0,50,-99.99,,,0.00,Acu-Link.com,2013-03-20 14:56:00,
2013-03-20 10:26:00,60.6,40.3,30.29,SSW,202,1.6,-999.0,47,-99.99,,,0.00,Acu-Link.com,2013-03-20 15:26:00,
2013-03-20 10:56:00,60.4,39.6,30.29,SSE,157,1.6,-999.0,46,-99.99,,,0.00,Acu-Link.com,2013-03-20 15:56:00,
2013-03-20 11:12:00,61.2,39.7,30.29,NNW,337,2.7,-999.0,45,-99.99,,,0.00,Acu-Link.com,2013-03-20 16:12:00,
2013-03-20 11:27:00,63.3,39.2,30.28,South,180,2.7,-999.0,41,-99.99,,,0.00,Acu-Link.com,2013-03-20 16:27:00,
2013-03-20 11:42:00,64.4,40.2,30.28,WSW,247,2.7,-999.0,41,-99.99,,,0.00,Acu-Link.com,2013-03-20 16:42:00,
2013-03-20 11:57:00,63.7,39.5,30.28,West,270,1.6,-999.0,41,-99.99,,,0.00,Acu-Link.com,2013-03-20 16:57:00,
2013-03-20 12:12:00,64.4,39.6,30.27,SSE,157,3.8,-999.0,40,-99.99,,,0.00,Acu-Link.com,2013-03-20 17:12:00,
2013-03-20 12:28:00,68.2,38.7,30.27,South,180,2.2,-999.0,34,-99.99,,,0.00,Acu-Link.com,2013-03-20 17:28:00,
2013-03-20 12:43:00,66.7,38.9,30.27,SSW,202,2.2,-999.0,36,-99.99,,,0.00,Acu-Link.com,2013-03-20 17:43:00,
2013-03-20 12:58:00,67.6,35.9,30.26,WNW,292,2.7,-999.0,31,-99.99,,,0.00,Acu-Link.com,2013-03-20 17:58:00,
2013-03-20 13:13:00,66.7,35.1,30.26,SSW,202,2.7,-999.0,31,-99.99,,,0.00,Acu-Link.com,2013-03-20 18:13:00,
2013-03-20 13:29:00,68.0,36.2,30.25,SSW,202,3.8,-999.0,31,-99.99,,,0.00,Acu-Link.com,2013-03-20 18:29:00,
2013-03-20 13:44:00,67.1,33.8,30.24,West,270,5.1,-999.0,29,-99.99,,,0.00,Acu-Link.com,2013-03-20 18:44:00,
2013-03-20 13:59:00,67.3,34.8,30.23,SSW,202,1.6,-999.0,30,-99.99,,,0.00,Acu-Link.com,2013-03-20 18:59:00,
2013-03-20 14:14:00,68.0,32.8,30.21,NW,315,2.2,-999.0,27,-99.99,,,0.00,Acu-Link.com,2013-03-20 19:14:00,
2013-03-20 14:29:00,68.0,31.8,30.20,SW,225,4.7,-999.0,26,-99.99,,,0.00,Acu-Link.com,2013-03-20 19:29:00,
2013-03-20 14:45:00,68.9,31.6,30.19,North,0,3.8,-999.0,25,-99.99,,,0.00,Acu-Link.com,2013-03-20 19:45:00,
2013-03-20 15:00:00,68.0,31.8,30.18,SW,225,2.2,-999.0,26,-99.99,,,0.00,Acu-Link.com,2013-03-20 20:00:00,
2013-03-20 15:15:00,68.5,33.2,30.16,West,270,3.1,-999.0,27,-99.99,,,0.00,Acu-Link.com,2013-03-20 20:15:00,
2013-03-20 15:30:00,70.2,33.7,30.16,SSE,157,2.2,-999.0,26,-99.99,,,0.00,Acu-Link.com,2013-03-20 20:30:00,
2013-03-20 15:45:00,69.8,33.4,30.15,West,270,3.8,-999.0,26,-99.99,,,0.00,Acu-Link.com,2013-03-20 20:45:00,
2013-03-20 16:01:00,70.3,32.8,30.15,SSW,202,2.2,-999.0,25,-99.99,,,0.00,Acu-Link.com,2013-03-20 21:01:00,
2013-03-20 16:31:00,70.2,30.6,30.13,SW,225,1.1,-999.0,23,-99.99,,,0.00,Acu-Link.com,2013-03-20 21:31:00,
2013-03-20 16:46:00,69.6,30.2,30.12,West,270,2.2,-999.0,23,-99.99,,,0.00,Acu-Link.com,2013-03-20 21:46:00,
2013-03-20 17:17:00,69.4,30.0,30.11,South,180,2.2,-999.0,23,-99.99,,,0.00,Acu-Link.com,2013-03-20 22:17:00,
2013-03-20 17:32:00,67.8,28.7,30.11,South,180,3.1,-999.0,23,-99.99,,,0.00,Acu-Link.com,2013-03-20 22:32:00,
2013-03-20 17:47:00,70.0,29.4,30.11,SW,225,2.7,-999.0,22,-99.99,,,0.00,Acu-Link.com,2013-03-20 22:47:00,
2013-03-20 18:02:00,70.0,29.4,30.10,SW,225,2.2,-999.0,22,-99.99,,,0.00,Acu-Link.com,2013-03-20 23:02:00,
2013-03-20 18:18:00,68.5,29.3,30.09,WSW,247,1.6,-999.0,23,-99.99,,,0.00,Acu-Link.com,2013-03-20 23:18:00,
2013-03-20 18:33:00,66.9,29.0,30.08,SSW,202,1.1,-999.0,24,-99.99,,,0.00,Acu-Link.com,2013-03-20 23:33:00,
2013-03-20 18:48:00,65.8,29.0,30.08,West,270,2.2,-999.0,25,-99.99,,,0.00,Acu-Link.com,2013-03-20 23:48:00,
2013-03-20 19:03:00,64.4,29.7,30.07,West,270,0.0,-999.0,27,-99.99,,,0.00,Acu-Link.com,2013-03-21 00:03:00,
2013-03-20 19:18:00,63.3,29.7,30.07,WNW,292,0.0,-999.0,28,-99.99,,,0.00,Acu-Link.com,2013-03-21 00:18:00,
2013-03-20 19:34:00,61.9,30.9,30.07,SSW,202,0.0,-999.0,31,-99.99,,,0.00,Acu-Link.com,2013-03-21 00:34:00,
2013-03-20 19:49:00,60.8,31.5,30.07,SE,135,0.0,-999.0,33,-99.99,,,0.00,Acu-Link.com,2013-03-21 00:49:00,
2013-03-20 20:04:00,59.9,32.2,30.06,South,180,0.0,-999.0,35,-99.99,,,0.00,Acu-Link.com,2013-03-21 01:04:00,
2013-03-20 20:19:00,59.0,32.1,30.06,SSE,157,0.0,-999.0,36,-99.99,,,0.00,Acu-Link.com,2013-03-21 01:19:00,
2013-03-20 20:34:00,57.7,31.0,30.06,SW,225,0.0,-999.0,36,-99.99,,,0.00,Acu-Link.com,2013-03-21 01:34:00,
2013-03-20 20:50:00,56.8,30.8,30.06,SSE,157,0.0,-999.0,37,-99.99,,,0.00,Acu-Link.com,2013-03-21 01:50:00,
2013-03-20 21:05:00,55.9,31.3,30.05,SW,225,0.0,-999.0,39,-99.99,,,0.00,Acu-Link.com,2013-03-21 02:05:00,
2013-03-20 21:20:00,55.4,31.5,30.05,West,270,0.0,-999.0,40,-99.99,,,0.00,Acu-Link.com,2013-03-21 02:20:00,
2013-03-20 21:35:00,54.7,31.5,30.04,West,270,0.0,-999.0,41,-99.99,,,0.00,Acu-Link.com,2013-03-21 02:35:00,
2013-03-20 21:50:00,54.9,31.0,30.03,East,90,2.2,-999.0,40,-99.99,,,0.00,Acu-Link.com,2013-03-21 02:50:00,
2013-03-20 22:06:00,55.4,30.9,30.03,SW,225,0.0,-999.0,39,-99.99,,,0.00,Acu-Link.com,2013-03-21 03:06:00,
2013-03-20 22:21:00,55.4,30.9,30.04,SE,135,0.0,-999.0,39,-99.99,,,0.00,Acu-Link.com,2013-03-21 03:21:00,
2013-03-20 22:36:00,55.2,31.3,30.03,NNE,22,0.0,-999.0,40,-99.99,,,0.00,Acu-Link.com,2013-03-21 03:36:00,
2013-03-20 22:51:00,55.6,31.0,30.02,East,90,1.6,-999.0,39,-99.99,,,0.00,Acu-Link.com,2013-03-21 03:51:00,
2013-03-20 23:07:00,55.9,31.3,30.02,NE,45,2.7,-999.0,39,-99.99,,,0.00,Acu-Link.com,2013-03-21 04:07:00,
2013-03-20 23:22:00,55.9,32.0,30.02,East,90,1.6,-999.0,40,-99.99,,,0.00,Acu-Link.com,2013-03-21 04:22:00,
2013-03-20 23:37:00,55.8,31.2,30.01,ESE,112,1.6,-999.0,39,-99.99,,,0.00,Acu-Link.com,2013-03-21 04:37:00,
2013-03-20 23:52:00,55.4,31.5,30.01,South,180,1.1,-999.0,40,-99.99,,,0.00,Acu-Link.com,2013-03-21 04:52:00,